Historique des mesures à Cassis (13260), France
Quotidien Résumé Avril 13, 2017 Unités:  US    Métrique   Métrique/US
« Précédent (Jour)
Suivant (Jour) »
Quotidien Hebdomadaire Mensuel Annuel Période au choix
  Maximum: Minimum: Moyenne:
Température: 32 °F 55.9 °F 63.7 °F
Point de rosée: 32 °F 42.4 °F 46.9 °F
Humidité: Humidity % 37 % 53 %
Vitesse du vent: WindSpeedKMH mph 0.0 mph 9.5 mph
Rafales: WindSpeedGustKMH mph - -
Vent:- - SSW
Pression: 0 in 29.7 in -
Précipitations: 0 in    
Historical Graphs
 
 
Mesures pour : Avril 13, 2017
Heure Temperature Point de rosée Pression Vent Vitesse du vent Rafales Humidité Pluie (par heure) Conditions
32 °F 32 °F 0 in Calm     Humidity % 0 in SoftwareType W/m2
00:11 56.8 °F 50.4 °F 29.9 in NNW 15.8 mph 15.8 mph 79 % 0 in open2300-1.11 W/m2
01:11 55.9 °F 49.1 °F 29.9 in Calm   2.1 mph 78 % 0 in open2300-1.11 W/m2
02:11 56.1 °F 49.3 °F 29.9 in Calm     78 % 0 in open2300-1.11 W/m2
03:11 56.5 °F 48.6 °F 29.9 in Calm     75 % 0 in open2300-1.11 W/m2
04:11 56.3 °F 47.7 °F 29.9 in North 5.0 mph 5.0 mph 73 % 0 in open2300-1.11 W/m2
05:11 56.1 °F 46.8 °F 29.9 in Calm     71 % 0 in open2300-1.11 W/m2
06:11 57.6 °F 45.9 °F 29.8 in South 2.9 mph 2.9 mph 65 % 0 in open2300-1.11 W/m2
07:11 55.9 °F 44.2 °F 29.8 in Calm     65 % 0 in open2300-1.11 W/m2
08:11 61 °F 45.7 °F 29.8 in North 2.1 mph 16.6 mph 57 % 0 in open2300-1.11 W/m2
09:11 64.6 °F 45.5 °F 29.8 in NW 13.4 mph 13.4 mph 50 % 0 in open2300-1.11 W/m2
10:11 66.9 °F 43 °F 29.8 in NNW 13.0 mph 24.8 mph 42 % 0 in open2300-1.11 W/m2
11:11 70 °F 42.4 °F 29.8 in North 15.8 mph 16.9 mph 37 % 0 in open2300-1.11 W/m2
12:11 70.7 °F 45.1 °F 29.8 in North 30.2 mph 34.1 mph 40 % 0 in open2300-1.11 W/m2
13:11 72 °F 46.4 °F 29.8 in North 7.6 mph 12.2 mph 40 % 0 in open2300-1.11 W/m2
14:11 73 °F 47.3 °F 29.8 in NNW 13.4 mph 13.4 mph 40 % 0 in open2300-1.11 W/m2
15:11 74.5 °F 47.1 °F 29.8 in North 20.9 mph 26.2 mph 38 % 0 in open2300-1.11 W/m2
16:11 75.4 °F 47.1 °F 29.8 in NNW 3.2 mph 31.4 mph 37 % 0 in open2300-1.11 W/m2
17:11 74.5 °F 48.6 °F 29.7 in NW 34.1 mph 34.1 mph 40 % 0 in open2300-1.11 W/m2
18:11 73.9 °F 49.8 °F 29.7 in NNW 14.8 mph 30.6 mph 43 % 0 in open2300-1.11 W/m2
19:11 70.5 °F 49.8 °F 29.8 in WNW 14.8 mph 18.3 mph 48 % 0 in open2300-1.11 W/m2
20:11 68.7 °F 48.7 °F 29.8 in WNW 18.0 mph 18.0 mph 49 % 0 in open2300-1.11 W/m2
21:11 67.1 °F 49.5 °F 29.8 in Calm     53 % 0 in open2300-1.11 W/m2
22:11 65.1 °F 51.8 °F 29.8 in WNW 11.6 mph 11.6 mph 62 % 0 in open2300-1.11 W/m2
23:11 62.4 °F 50.5 °F 29.8 in Calm     65 % 0 in open2300-1.11 W/m2
Observations météo à CASSIS
WU-History script by Weather Underground - 1 mb